createdAt,value
2022-11-05T00:04:10.687Z,4.75
2022-11-05T00:08:31.663Z,5.78
2022-11-05T00:12:52.663Z,4.70
2022-11-05T00:16:57.533Z,5.22
2022-11-05T00:21:00.870Z,5.90
2022-11-05T00:25:16.807Z,6.43
2022-11-05T00:29:20.258Z,6.35
2022-11-05T00:33:24.973Z,5.55
2022-11-05T00:37:28.766Z,6.03
2022-11-05T00:41:32.292Z,6.18
2022-11-05T00:45:35.655Z,6.00
2022-11-05T00:49:39.440Z,6.15
2022-11-05T00:53:42.793Z,5.93
2022-11-05T00:57:46.151Z,6.53
2022-11-05T01:01:49.819Z,6.00
2022-11-05T01:05:56.293Z,6.70
2022-11-05T01:09:59.635Z,6.45
2022-11-05T01:14:05.215Z,5.78
2022-11-05T01:18:09.234Z,5.63
2022-11-05T01:22:14.304Z,5.85
2022-11-05T01:26:17.657Z,6.65
2022-11-05T01:30:21.473Z,6.70
2022-11-05T01:34:24.759Z,5.68
2022-11-05T01:38:29.528Z,5.50
2022-11-05T01:42:34.347Z,5.22
2022-11-05T01:46:42.321Z,5.65
2022-11-05T01:50:50.819Z,5.60
2022-11-05T01:54:56.093Z,5.10
2022-11-05T01:59:02.991Z,4.78
2022-11-05T02:03:06.507Z,4.13
2022-11-05T02:07:11.836Z,4.25
2022-11-05T02:11:19.497Z,4.57
2022-11-05T02:15:29.753Z,3.75
2022-11-05T02:19:56.613Z,3.90
2022-11-05T02:24:24.646Z,3.35
2022-11-05T02:29:04.396Z,3.40
2022-11-05T02:33:24.018Z,3.58
2022-11-05T02:37:39.581Z,3.03
2022-11-05T02:41:52.671Z,3.80
2022-11-05T02:46:04.730Z,3.53
2022-11-05T02:50:20.196Z,3.33
2022-11-05T02:54:28.251Z,3.40
2022-11-05T02:58:31.809Z,4.53
2022-11-05T03:02:35.504Z,3.78
2022-11-05T03:07:05.567Z,4.47
2022-11-05T03:11:15.634Z,4.03
2022-11-05T03:15:35.929Z,5.10
2022-11-05T03:19:47.818Z,4.45
2022-11-05T03:23:57.636Z,5.75
2022-11-05T03:28:07.397Z,6.22
2022-11-05T03:32:13.171Z,6.20
2022-11-05T03:36:22.992Z,5.85
2022-11-05T03:40:29.569Z,6.05
2022-11-05T03:44:36.786Z,5.60
2022-11-05T03:48:44.462Z,7.28
2022-11-05T03:52:53.307Z,7.43
2022-11-05T03:57:04.972Z,8.00
2022-11-05T04:01:08.555Z,7.20
2022-11-05T04:05:12.762Z,7.05
2022-11-05T04:09:33.399Z,7.53
2022-11-05T04:13:38.147Z,7.60
2022-11-05T04:17:41.515Z,6.57
2022-11-05T04:22:02.244Z,8.20
2022-11-05T04:26:05.771Z,7.88
2022-11-05T04:30:20.608Z,7.68
2022-11-05T04:34:24.661Z,7.32
2022-11-05T04:38:28.068Z,9.13
2022-11-05T04:42:31.414Z,9.55
2022-11-05T04:46:36.121Z,8.45
2022-11-05T04:50:39.596Z,8.32
2022-11-05T04:54:42.964Z,7.85
2022-11-05T04:58:46.652Z,9.43
2022-11-05T05:02:51.709Z,5.85
2022-11-05T05:06:54.991Z,7.55
2022-11-05T05:11:02.774Z,8.82
2022-11-05T05:15:07.260Z,8.23
2022-11-05T05:19:12.000Z,7.88
2022-11-05T05:23:15.376Z,6.18
2022-11-05T05:27:18.756Z,8.15
2022-11-05T05:31:22.682Z,7.60
2022-11-05T05:35:27.396Z,8.07
2022-11-05T05:39:30.757Z,7.30
2022-11-05T05:43:35.028Z,8.05
2022-11-05T05:47:38.778Z,6.50
2022-11-05T05:51:43.628Z,6.93
2022-11-05T05:55:47.039Z,7.05
2022-11-05T05:59:50.439Z,5.82
2022-11-05T06:03:53.755Z,6.72
2022-11-05T06:07:59.284Z,7.05
2022-11-05T06:12:02.793Z,6.78
2022-11-05T06:16:08.167Z,6.47
2022-11-05T06:20:12.789Z,5.55
2022-11-05T06:24:17.524Z,5.68
2022-11-05T06:28:20.914Z,5.70
2022-11-05T06:32:24.390Z,6.13
2022-11-05T06:36:27.736Z,5.55
2022-11-05T06:40:32.408Z,4.95
2022-11-05T06:44:35.741Z,5.78
2022-11-05T06:48:39.510Z,5.25
2022-11-05T06:52:42.789Z,6.47
2022-11-05T06:56:47.545Z,5.43
2022-11-05T07:00:51.159Z,5.97
2022-11-05T07:04:54.559Z,5.80
2022-11-05T07:08:57.967Z,5.40
2022-11-05T07:13:07.783Z,5.50
2022-11-05T07:17:12.136Z,5.82
2022-11-05T07:21:15.468Z,6.95
2022-11-05T07:25:19.172Z,7.60
2022-11-05T07:29:23.847Z,6.97
2022-11-05T07:37:33.452Z,7.43
2022-11-05T07:41:37.006Z,6.68
2022-11-05T07:45:41.809Z,6.90
2022-11-05T07:49:45.162Z,7.17
2022-11-05T07:53:48.692Z,5.53
2022-11-05T07:57:52.455Z,5.50
2022-11-05T08:01:57.535Z,5.93
2022-11-05T08:06:01.138Z,5.17
2022-11-05T08:10:05.083Z,5.20
2022-11-05T08:14:08.670Z,4.85
2022-11-05T08:18:15.774Z,5.20
2022-11-05T08:22:19.221Z,5.10
2022-11-05T08:26:22.706Z,4.87
2022-11-05T08:34:30.944Z,4.15
2022-11-05T09:31:26.874Z,3.15
2022-11-05T11:17:57.774Z,2.05
2022-11-05T11:34:31.006Z,2.40
2022-11-05T15:35:30.118Z,1.40
2022-11-05T15:39:40.753Z,0.90
2022-11-05T15:43:48.210Z,1.00
2022-11-05T15:51:55.065Z,1.10
2022-11-05T15:56:02.621Z,0.95
2022-11-05T16:00:16.864Z,0.77
2022-11-05T16:04:22.792Z,0.80
2022-11-05T16:08:28.550Z,1.50
2022-11-05T16:12:35.234Z,1.33
2022-11-05T16:16:41.462Z,1.20
2022-11-05T16:21:00.859Z,0.80
2022-11-05T16:25:28.579Z,1.23
2022-11-05T16:29:36.739Z,0.90
2022-11-05T16:33:45.203Z,0.95
2022-11-05T16:37:52.057Z,0.73
2022-11-05T16:41:55.969Z,0.70
2022-11-05T16:46:02.122Z,0.70
2022-11-05T16:50:17.152Z,1.00
2022-11-05T16:54:20.982Z,0.85
2022-11-05T16:58:26.743Z,1.02
2022-11-05T17:02:30.406Z,1.00
2022-11-05T17:06:36.516Z,1.45
2022-11-05T17:10:40.230Z,1.42
2022-11-05T17:14:44.409Z,1.30
2022-11-05T17:18:47.924Z,1.23
2022-11-05T17:22:52.950Z,1.02
2022-11-05T17:26:57.574Z,1.30
2022-11-05T17:31:01.654Z,1.13
2022-11-05T17:35:06.085Z,1.20
2022-11-05T17:39:12.893Z,1.73
2022-11-05T17:43:16.576Z,1.10
2022-11-05T17:47:20.148Z,1.60
2022-11-05T17:51:23.759Z,1.13
2022-11-05T17:55:28.553Z,1.23
2022-11-05T17:59:32.570Z,1.02
2022-11-05T18:03:36.524Z,1.50
2022-11-05T18:07:40.104Z,1.08
2022-11-05T18:11:46.377Z,1.90
2022-11-05T18:15:53.216Z,1.60
2022-11-05T18:19:56.972Z,1.55
2022-11-05T18:24:03.733Z,1.80
2022-11-05T18:28:09.135Z,1.63
2022-11-05T18:32:12.923Z,2.00
2022-11-05T18:36:18.991Z,2.40
2022-11-05T18:40:22.732Z,2.92
2022-11-05T18:44:27.775Z,1.75
2022-11-05T18:48:31.308Z,1.65
2022-11-05T18:52:35.621Z,2.55
2022-11-05T18:56:44.755Z,1.88
2022-11-05T19:00:49.772Z,2.42
2022-11-05T19:05:22.490Z,2.10
2022-11-05T19:09:17.165Z,2.17
2022-11-05T19:13:20.665Z,2.35
2022-11-05T19:17:25.709Z,2.28
2022-11-05T19:21:30.076Z,2.50
2022-11-05T19:25:33.720Z,2.15
2022-11-05T19:29:37.279Z,1.15
2022-11-05T19:33:42.726Z,1.77
2022-11-05T19:37:46.593Z,2.30
2022-11-05T19:41:50.218Z,2.10
2022-11-05T19:45:53.724Z,2.00
2022-11-05T19:49:58.761Z,2.03
2022-11-05T19:54:03.358Z,1.50
2022-11-05T19:58:06.989Z,1.48
2022-11-05T20:02:15.972Z,1.40
2022-11-05T20:06:25.829Z,2.10
2022-11-05T20:10:29.511Z,1.02
2022-11-05T20:14:33.475Z,1.90
2022-11-05T20:18:37.307Z,2.10
2022-11-05T20:22:42.353Z,1.38
2022-11-05T20:26:46.096Z,1.42
2022-11-05T20:30:50.038Z,1.65
2022-11-05T20:34:53.864Z,1.30
2022-11-05T20:38:59.950Z,1.48
2022-11-05T20:43:03.510Z,1.08
2022-11-05T20:47:07.075Z,1.13
2022-11-05T20:51:13.443Z,1.25
2022-11-05T20:55:18.481Z,1.20
2022-11-05T20:59:22.081Z,1.40
2022-11-05T21:03:27.273Z,1.63
2022-11-05T21:07:30.656Z,1.40
2022-11-05T21:11:57.300Z,1.42
2022-11-05T21:16:01.992Z,1.67
2022-11-05T21:20:06.815Z,1.52
2022-11-05T21:24:10.510Z,1.23
2022-11-05T21:28:16.743Z,1.55
2022-11-05T21:32:20.616Z,1.20
2022-11-05T21:36:24.193Z,1.27
2022-11-05T21:40:27.822Z,1.60
2022-11-05T21:44:32.800Z,1.70
2022-11-05T21:48:37.423Z,1.52
2022-11-05T21:53:12.930Z,1.30
2022-11-05T21:57:36.170Z,1.35
2022-11-05T22:01:41.119Z,0.63
2022-11-05T22:05:45.003Z,0.80
2022-11-05T22:09:48.465Z,1.23
2022-11-05T22:13:53.443Z,1.85
2022-11-05T22:17:58.360Z,1.08
2022-11-05T22:22:02.101Z,1.23
2022-11-05T22:26:05.595Z,1.13
2022-11-05T22:30:09.665Z,1.08
2022-11-05T22:34:14.372Z,1.00
2022-11-05T22:38:17.740Z,1.05
2022-11-05T22:42:21.107Z,1.00
2022-11-05T22:46:26.452Z,1.10
2022-11-05T22:50:31.189Z,0.68
2022-11-05T22:54:39.038Z,0.77
2022-11-05T22:58:43.305Z,1.48
2022-11-05T23:02:46.745Z,1.23
2022-11-05T23:07:09.282Z,1.50
2022-11-05T23:11:34.301Z,1.50
2022-11-05T23:15:55.312Z,1.27
2022-11-05T23:20:24.911Z,0.93
2022-11-05T23:24:29.633Z,0.88
2022-11-05T23:28:33.016Z,0.90
2022-11-05T23:32:36.797Z,1.50
2022-11-05T23:36:57.695Z,1.45
2022-11-05T23:41:21.409Z,1.38
2022-11-05T23:45:42.206Z,1.27
2022-11-05T23:49:45.584Z,1.33
2022-11-05T23:53:48.881Z,1.42
2022-11-05T23:57:54.306Z,1.55
